sensor_id;sensor_type;location;lat;lon;timestamp;P1;durP1;ratioP1;P2;durP2;ratioP2
6898;SDS011;3488;42.616;23.350;2023-04-06T00:01:10;11.15;;;8.70;;
6898;SDS011;3488;42.616;23.350;2023-04-06T00:03:38;9.98;;;7.55;;
6898;SDS011;3488;42.616;23.350;2023-04-06T00:06:05;8.98;;;7.97;;
6898;SDS011;3488;42.616;23.350;2023-04-06T00:08:34;9.60;;;8.65;;
6898;SDS011;3488;42.616;23.350;2023-04-06T00:11:01;11.05;;;8.57;;
6898;SDS011;3488;42.616;23.350;2023-04-06T00:13:29;10.88;;;8.82;;
6898;SDS011;3488;42.616;23.350;2023-04-06T00:15:56;11.65;;;8.75;;
6898;SDS011;3488;42.616;23.350;2023-04-06T00:18:26;11.43;;;8.45;;
6898;SDS011;3488;42.616;23.350;2023-04-06T00:20:54;9.98;;;8.20;;
6898;SDS011;3488;42.616;23.350;2023-04-06T00:23:22;10.20;;;8.35;;
6898;SDS011;3488;42.616;23.350;2023-04-06T00:25:53;15.48;;;8.40;;
6898;SDS011;3488;42.616;23.350;2023-04-06T00:28:29;12.27;;;9.55;;
6898;SDS011;3488;42.616;23.350;2023-04-06T00:30:57;12.88;;;9.00;;
6898;SDS011;3488;42.616;23.350;2023-04-06T00:33:25;13.48;;;9.82;;
6898;SDS011;3488;42.616;23.350;2023-04-06T00:35:55;11.45;;;9.02;;
6898;SDS011;3488;42.616;23.350;2023-04-06T00:38:25;12.48;;;9.45;;
6898;SDS011;3488;42.616;23.350;2023-04-06T00:40:55;9.70;;;8.45;;
6898;SDS011;3488;42.616;23.350;2023-04-06T00:43:22;14.32;;;8.77;;
6898;SDS011;3488;42.616;23.350;2023-04-06T00:45:49;11.05;;;9.32;;
6898;SDS011;3488;42.616;23.350;2023-04-06T00:48:17;12.45;;;9.25;;
6898;SDS011;3488;42.616;23.350;2023-04-06T00:50:44;13.45;;;9.90;;
6898;SDS011;3488;42.616;23.350;2023-04-06T00:53:12;13.18;;;9.30;;
6898;SDS011;3488;42.616;23.350;2023-04-06T00:55:39;12.43;;;9.70;;
6898;SDS011;3488;42.616;23.350;2023-04-06T00:58:08;11.38;;;8.98;;
6898;SDS011;3488;42.616;23.350;2023-04-06T01:00:36;11.60;;;8.65;;
6898;SDS011;3488;42.616;23.350;2023-04-06T01:03:04;10.65;;;7.80;;
6898;SDS011;3488;42.616;23.350;2023-04-06T01:05:32;11.32;;;8.43;;
6898;SDS011;3488;42.616;23.350;2023-04-06T01:08:05;10.85;;;8.55;;
6898;SDS011;3488;42.616;23.350;2023-04-06T01:10:32;10.30;;;8.30;;
6898;SDS011;3488;42.616;23.350;2023-04-06T01:13:01;9.95;;;8.07;;
6898;SDS011;3488;42.616;23.350;2023-04-06T01:15:30;8.85;;;7.00;;
6898;SDS011;3488;42.616;23.350;2023-04-06T01:18:00;10.45;;;7.30;;
6898;SDS011;3488;42.616;23.350;2023-04-06T01:20:30;8.95;;;7.20;;
6898;SDS011;3488;42.616;23.350;2023-04-06T01:22:59;6.80;;;5.70;;
6898;SDS011;3488;42.616;23.350;2023-04-06T01:25:26;7.82;;;6.40;;
6898;SDS011;3488;42.616;23.350;2023-04-06T01:27:53;6.13;;;5.53;;
6898;SDS011;3488;42.616;23.350;2023-04-06T01:30:20;10.40;;;6.90;;
6898;SDS011;3488;42.616;23.350;2023-04-06T01:32:47;9.50;;;7.25;;
6898;SDS011;3488;42.616;23.350;2023-04-06T01:35:18;7.45;;;6.70;;
6898;SDS011;3488;42.616;23.350;2023-04-06T01:37:47;7.90;;;7.05;;
6898;SDS011;3488;42.616;23.350;2023-04-06T01:40:18;7.65;;;6.40;;
6898;SDS011;3488;42.616;23.350;2023-04-06T01:42:46;7.07;;;6.35;;
6898;SDS011;3488;42.616;23.350;2023-04-06T01:45:14;6.50;;;5.88;;
6898;SDS011;3488;42.616;23.350;2023-04-06T01:47:41;7.60;;;6.65;;
6898;SDS011;3488;42.616;23.350;2023-04-06T01:50:09;9.48;;;6.80;;
6898;SDS011;3488;42.616;23.350;2023-04-06T01:52:37;8.55;;;7.20;;
6898;SDS011;3488;42.616;23.350;2023-04-06T01:55:05;8.45;;;6.93;;
6898;SDS011;3488;42.616;23.350;2023-04-06T01:57:37;7.60;;;5.65;;
6898;SDS011;3488;42.616;23.350;2023-04-06T02:00:05;6.97;;;6.10;;
6898;SDS011;3488;42.616;23.350;2023-04-06T02:02:34;7.28;;;6.50;;
6898;SDS011;3488;42.616;23.350;2023-04-06T02:05:01;6.47;;;5.28;;
6898;SDS011;3488;42.616;23.350;2023-04-06T02:07:28;7.78;;;6.97;;
6898;SDS011;3488;42.616;23.350;2023-04-06T02:09:58;8.10;;;6.78;;
6898;SDS011;3488;42.616;23.350;2023-04-06T02:12:25;4.93;;;4.32;;
6898;SDS011;3488;42.616;23.350;2023-04-06T02:14:54;11.20;;;7.25;;
6898;SDS011;3488;42.616;23.350;2023-04-06T02:17:21;6.05;;;5.25;;
6898;SDS011;3488;42.616;23.350;2023-04-06T02:19:49;6.90;;;6.30;;
6898;SDS011;3488;42.616;23.350;2023-04-06T02:22:16;9.38;;;6.63;;
6898;SDS011;3488;42.616;23.350;2023-04-06T02:24:44;6.60;;;6.00;;
6898;SDS011;3488;42.616;23.350;2023-04-06T02:27:14;6.38;;;5.78;;
6898;SDS011;3488;42.616;23.350;2023-04-06T02:29:41;8.68;;;6.10;;
6898;SDS011;3488;42.616;23.350;2023-04-06T02:32:09;6.78;;;6.05;;
6898;SDS011;3488;42.616;23.350;2023-04-06T02:34:36;6.80;;;6.10;;
6898;SDS011;3488;42.616;23.350;2023-04-06T02:37:03;4.68;;;4.25;;
6898;SDS011;3488;42.616;23.350;2023-04-06T02:39:30;7.60;;;6.00;;
6898;SDS011;3488;42.616;23.350;2023-04-06T02:41:57;5.22;;;4.55;;
6898;SDS011;3488;42.616;23.350;2023-04-06T02:44:25;6.35;;;4.20;;
6898;SDS011;3488;42.616;23.350;2023-04-06T02:46:55;6.97;;;6.25;;
6898;SDS011;3488;42.616;23.350;2023-04-06T02:49:24;7.20;;;6.05;;
6898;SDS011;3488;42.616;23.350;2023-04-06T02:51:51;7.43;;;6.32;;
6898;SDS011;3488;42.616;23.350;2023-04-06T02:54:19;7.63;;;6.57;;
6898;SDS011;3488;42.616;23.350;2023-04-06T02:56:47;6.72;;;4.90;;
6898;SDS011;3488;42.616;23.350;2023-04-06T02:59:14;6.10;;;5.32;;
6898;SDS011;3488;42.616;23.350;2023-04-06T03:01:44;5.68;;;5.18;;
6898;SDS011;3488;42.616;23.350;2023-04-06T03:04:12;6.72;;;5.28;;
6898;SDS011;3488;42.616;23.350;2023-04-06T03:06:40;6.32;;;4.72;;
6898;SDS011;3488;42.616;23.350;2023-04-06T03:09:08;6.38;;;5.07;;
6898;SDS011;3488;42.616;23.350;2023-04-06T03:11:35;6.40;;;5.80;;
6898;SDS011;3488;42.616;23.350;2023-04-06T03:14:02;5.75;;;4.63;;
6898;SDS011;3488;42.616;23.350;2023-04-06T03:16:29;8.77;;;6.20;;
6898;SDS011;3488;42.616;23.350;2023-04-06T03:18:58;6.18;;;5.13;;
6898;SDS011;3488;42.616;23.350;2023-04-06T03:21:26;5.03;;;4.18;;
6898;SDS011;3488;42.616;23.350;2023-04-06T03:23:54;6.47;;;5.85;;
6898;SDS011;3488;42.616;23.350;2023-04-06T03:26:25;7.70;;;6.32;;
6898;SDS011;3488;42.616;23.350;2023-04-06T03:28:53;6.40;;;5.55;;
6898;SDS011;3488;42.616;23.350;2023-04-06T03:31:20;6.43;;;5.30;;
6898;SDS011;3488;42.616;23.350;2023-04-06T03:33:47;5.90;;;5.38;;
6898;SDS011;3488;42.616;23.350;2023-04-06T03:36:14;6.10;;;4.70;;
6898;SDS011;3488;42.616;23.350;2023-04-06T03:38:42;7.63;;;6.10;;
6898;SDS011;3488;42.616;23.350;2023-04-06T03:41:11;7.18;;;5.95;;
6898;SDS011;3488;42.616;23.350;2023-04-06T03:43:38;6.88;;;5.60;;
6898;SDS011;3488;42.616;23.350;2023-04-06T03:46:05;7.10;;;6.13;;
6898;SDS011;3488;42.616;23.350;2023-04-06T03:48:32;7.28;;;5.40;;
6898;SDS011;3488;42.616;23.350;2023-04-06T03:51:00;6.63;;;5.95;;
6898;SDS011;3488;42.616;23.350;2023-04-06T03:53:27;6.38;;;5.38;;
6898;SDS011;3488;42.616;23.350;2023-04-06T03:55:54;5.25;;;4.80;;
6898;SDS011;3488;42.616;23.350;2023-04-06T03:58:26;5.55;;;4.80;;
6898;SDS011;3488;42.616;23.350;2023-04-06T04:00:54;3.92;;;3.60;;
6898;SDS011;3488;42.616;23.350;2023-04-06T04:03:21;6.80;;;4.68;;
6898;SDS011;3488;42.616;23.350;2023-04-06T04:05:48;5.35;;;4.82;;
6898;SDS011;3488;42.616;23.350;2023-04-06T04:08:16;4.80;;;4.40;;
6898;SDS011;3488;42.616;23.350;2023-04-06T04:10:43;4.50;;;4.10;;
6898;SDS011;3488;42.616;23.350;2023-04-06T04:13:10;4.88;;;4.18;;
6898;SDS011;3488;42.616;23.350;2023-04-06T04:15:39;5.60;;;4.90;;
6898;SDS011;3488;42.616;23.350;2023-04-06T04:18:06;2.60;;;2.42;;
6898;SDS011;3488;42.616;23.350;2023-04-06T04:20:33;5.53;;;5.00;;
6898;SDS011;3488;42.616;23.350;2023-04-06T04:23:00;4.88;;;4.53;;
6898;SDS011;3488;42.616;23.350;2023-04-06T04:25:28;5.13;;;4.47;;
6898;SDS011;3488;42.616;23.350;2023-04-06T04:27:55;8.63;;;5.03;;
6898;SDS011;3488;42.616;23.350;2023-04-06T04:30:23;6.35;;;5.07;;
6898;SDS011;3488;42.616;23.350;2023-04-06T04:32:52;5.07;;;4.57;;
6898;SDS011;3488;42.616;23.350;2023-04-06T04:35:19;6.78;;;5.22;;
6898;SDS011;3488;42.616;23.350;2023-04-06T04:37:46;8.00;;;5.50;;
6898;SDS011;3488;42.616;23.350;2023-04-06T04:40:13;5.47;;;4.63;;
6898;SDS011;3488;42.616;23.350;2023-04-06T04:42:41;8.35;;;6.57;;
6898;SDS011;3488;42.616;23.350;2023-04-06T04:45:09;7.05;;;6.22;;
6898;SDS011;3488;42.616;23.350;2023-04-06T04:47:36;6.70;;;5.97;;
6898;SDS011;3488;42.616;23.350;2023-04-06T04:50:06;5.95;;;5.32;;
6898;SDS011;3488;42.616;23.350;2023-04-06T04:52:33;6.72;;;6.03;;
6898;SDS011;3488;42.616;23.350;2023-04-06T04:55:01;5.88;;;5.25;;
6898;SDS011;3488;42.616;23.350;2023-04-06T04:57:28;11.77;;;5.70;;
6898;SDS011;3488;42.616;23.350;2023-04-06T04:59:56;6.00;;;5.35;;
6898;SDS011;3488;42.616;23.350;2023-04-06T05:02:26;4.97;;;4.35;;
6898;SDS011;3488;42.616;23.350;2023-04-06T05:04:54;5.20;;;4.60;;
6898;SDS011;3488;42.616;23.350;2023-04-06T05:07:23;5.07;;;3.90;;
6898;SDS011;3488;42.616;23.350;2023-04-06T05:09:50;4.32;;;3.92;;
6898;SDS011;3488;42.616;23.350;2023-04-06T05:12:20;4.32;;;3.92;;
6898;SDS011;3488;42.616;23.350;2023-04-06T05:14:47;3.88;;;3.53;;
6898;SDS011;3488;42.616;23.350;2023-04-06T05:17:15;4.30;;;4.00;;
6898;SDS011;3488;42.616;23.350;2023-04-06T05:19:43;4.30;;;3.90;;
6898;SDS011;3488;42.616;23.350;2023-04-06T05:22:10;3.30;;;3.10;;
6898;SDS011;3488;42.616;23.350;2023-04-06T05:24:41;3.47;;;3.25;;
6898;SDS011;3488;42.616;23.350;2023-04-06T05:27:08;3.25;;;2.92;;
6898;SDS011;3488;42.616;23.350;2023-04-06T05:29:35;3.40;;;3.10;;
6898;SDS011;3488;42.616;23.350;2023-04-06T05:32:02;4.82;;;3.33;;
6898;SDS011;3488;42.616;23.350;2023-04-06T05:34:31;4.45;;;3.97;;
6898;SDS011;3488;42.616;23.350;2023-04-06T05:36:58;4.90;;;4.40;;
6898;SDS011;3488;42.616;23.350;2023-04-06T05:39:25;4.53;;;4.13;;
6898;SDS011;3488;42.616;23.350;2023-04-06T05:41:54;3.40;;;3.20;;
6898;SDS011;3488;42.616;23.350;2023-04-06T05:44:21;3.47;;;3.15;;
6898;SDS011;3488;42.616;23.350;2023-04-06T05:46:48;4.60;;;4.20;;
6898;SDS011;3488;42.616;23.350;2023-04-06T05:49:15;5.07;;;4.22;;
6898;SDS011;3488;42.616;23.350;2023-04-06T05:51:42;3.60;;;3.30;;
6898;SDS011;3488;42.616;23.350;2023-04-06T05:54:10;4.65;;;4.35;;
6898;SDS011;3488;42.616;23.350;2023-04-06T05:56:37;3.03;;;2.83;;
6898;SDS011;3488;42.616;23.350;2023-04-06T05:59:07;4.55;;;3.80;;
6898;SDS011;3488;42.616;23.350;2023-04-06T06:01:34;8.60;;;3.92;;
6898;SDS011;3488;42.616;23.350;2023-04-06T06:04:02;4.53;;;4.00;;
6898;SDS011;3488;42.616;23.350;2023-04-06T06:06:30;5.18;;;4.47;;
6898;SDS011;3488;42.616;23.350;2023-04-06T06:08:57;6.35;;;4.43;;
6898;SDS011;3488;42.616;23.350;2023-04-06T06:11:26;8.48;;;5.95;;
6898;SDS011;3488;42.616;23.350;2023-04-06T06:13:53;6.35;;;5.65;;
6898;SDS011;3488;42.616;23.350;2023-04-06T06:16:21;15.25;;;9.13;;
6898;SDS011;3488;42.616;23.350;2023-04-06T06:18:48;17.23;;;8.32;;
6898;SDS011;3488;42.616;23.350;2023-04-06T06:21:15;5.03;;;3.90;;
6898;SDS011;3488;42.616;23.350;2023-04-06T06:23:43;4.85;;;3.88;;
6898;SDS011;3488;42.616;23.350;2023-04-06T06:26:12;6.22;;;5.60;;
6898;SDS011;3488;42.616;23.350;2023-04-06T06:28:39;5.30;;;4.80;;
6898;SDS011;3488;42.616;23.350;2023-04-06T06:31:06;7.07;;;4.93;;
6898;SDS011;3488;42.616;23.350;2023-04-06T06:33:34;4.90;;;4.50;;
6898;SDS011;3488;42.616;23.350;2023-04-06T06:36:02;5.20;;;4.70;;
6898;SDS011;3488;42.616;23.350;2023-04-06T06:38:29;6.13;;;4.80;;
6898;SDS011;3488;42.616;23.350;2023-04-06T06:40:56;5.82;;;4.03;;
6898;SDS011;3488;42.616;23.350;2023-04-06T06:43:24;4.45;;;4.05;;
6898;SDS011;3488;42.616;23.350;2023-04-06T06:45:51;4.15;;;3.72;;
6898;SDS011;3488;42.616;23.350;2023-04-06T06:48:18;6.78;;;4.30;;
6898;SDS011;3488;42.616;23.350;2023-04-06T06:50:48;3.78;;;3.47;;
6898;SDS011;3488;42.616;23.350;2023-04-06T06:53:15;4.10;;;3.67;;
6898;SDS011;3488;42.616;23.350;2023-04-06T06:55:42;5.22;;;4.72;;
6898;SDS011;3488;42.616;23.350;2023-04-06T06:58:10;5.53;;;4.95;;
6898;SDS011;3488;42.616;23.350;2023-04-06T07:00:37;5.22;;;4.22;;
6898;SDS011;3488;42.616;23.350;2023-04-06T07:03:04;3.88;;;3.58;;
6898;SDS011;3488;42.616;23.350;2023-04-06T07:05:31;3.33;;;3.13;;
6898;SDS011;3488;42.616;23.350;2023-04-06T07:08:01;3.00;;;2.78;;
6898;SDS011;3488;42.616;23.350;2023-04-06T07:10:28;4.47;;;4.10;;
6898;SDS011;3488;42.616;23.350;2023-04-06T07:12:55;4.60;;;4.20;;
6898;SDS011;3488;42.616;23.350;2023-04-06T07:15:22;4.97;;;4.22;;
6898;SDS011;3488;42.616;23.350;2023-04-06T07:17:49;4.70;;;4.30;;
6898;SDS011;3488;42.616;23.350;2023-04-06T07:20:17;4.85;;;3.92;;
6898;SDS011;3488;42.616;23.350;2023-04-06T07:22:44;5.95;;;5.35;;
6898;SDS011;3488;42.616;23.350;2023-04-06T07:25:13;5.20;;;4.13;;
6898;SDS011;3488;42.616;23.350;2023-04-06T07:27:40;4.65;;;3.97;;
6898;SDS011;3488;42.616;23.350;2023-04-06T07:30:07;4.22;;;3.85;;
6898;SDS011;3488;42.616;23.350;2023-04-06T07:32:35;5.63;;;5.22;;
6898;SDS011;3488;42.616;23.350;2023-04-06T07:35:04;5.65;;;4.53;;
6898;SDS011;3488;42.616;23.350;2023-04-06T07:37:31;8.05;;;6.43;;
6898;SDS011;3488;42.616;23.350;2023-04-06T07:39:59;5.18;;;4.70;;
6898;SDS011;3488;42.616;23.350;2023-04-06T07:42:27;4.53;;;3.97;;
6898;SDS011;3488;42.616;23.350;2023-04-06T07:44:54;6.50;;;5.32;;
6898;SDS011;3488;42.616;23.350;2023-04-06T07:47:23;5.47;;;4.97;;
6898;SDS011;3488;42.616;23.350;2023-04-06T07:49:50;7.50;;;5.38;;
6898;SDS011;3488;42.616;23.350;2023-04-06T07:52:17;6.38;;;4.28;;
6898;SDS011;3488;42.616;23.350;2023-04-06T07:54:44;5.85;;;4.97;;
6898;SDS011;3488;42.616;23.350;2023-04-06T07:57:11;5.00;;;4.50;;
6898;SDS011;3488;42.616;23.350;2023-04-06T07:59:40;7.15;;;5.43;;
6898;SDS011;3488;42.616;23.350;2023-04-06T08:02:07;5.03;;;4.10;;
6898;SDS011;3488;42.616;23.350;2023-04-06T08:04:35;4.25;;;3.95;;
6898;SDS011;3488;42.616;23.350;2023-04-06T08:07:02;4.50;;;4.10;;
6898;SDS011;3488;42.616;23.350;2023-04-06T08:09:33;4.60;;;4.18;;
6898;SDS011;3488;42.616;23.350;2023-04-06T08:12:01;4.65;;;4.15;;
6898;SDS011;3488;42.616;23.350;2023-04-06T08:14:28;3.53;;;3.22;;
6898;SDS011;3488;42.616;23.350;2023-04-06T08:16:56;6.82;;;4.78;;
6898;SDS011;3488;42.616;23.350;2023-04-06T08:19:24;4.80;;;4.32;;
6898;SDS011;3488;42.616;23.350;2023-04-06T08:21:51;4.00;;;3.65;;
6898;SDS011;3488;42.616;23.350;2023-04-06T08:24:18;5.03;;;4.15;;
6898;SDS011;3488;42.616;23.350;2023-04-06T08:26:45;4.18;;;3.88;;
6898;SDS011;3488;42.616;23.350;2023-04-06T08:29:12;7.80;;;5.07;;
6898;SDS011;3488;42.616;23.350;2023-04-06T08:31:39;3.92;;;3.63;;
6898;SDS011;3488;42.616;23.350;2023-04-06T08:34:07;7.20;;;3.97;;
6898;SDS011;3488;42.616;23.350;2023-04-06T08:36:35;5.10;;;4.60;;
6898;SDS011;3488;42.616;23.350;2023-04-06T08:39:03;3.88;;;3.63;;
6898;SDS011;3488;42.616;23.350;2023-04-06T08:41:30;5.68;;;4.20;;
6898;SDS011;3488;42.616;23.350;2023-04-06T08:43:58;4.72;;;4.13;;
6898;SDS011;3488;42.616;23.350;2023-04-06T08:46:26;4.80;;;4.38;;
6898;SDS011;3488;42.616;23.350;2023-04-06T08:48:55;4.68;;;4.13;;
6898;SDS011;3488;42.616;23.350;2023-04-06T08:51:24;5.50;;;5.00;;
6898;SDS011;3488;42.616;23.350;2023-04-06T08:53:52;5.97;;;4.70;;
6898;SDS011;3488;42.616;23.350;2023-04-06T08:56:21;5.05;;;4.57;;
6898;SDS011;3488;42.616;23.350;2023-04-06T08:58:49;5.35;;;4.85;;
6898;SDS011;3488;42.616;23.350;2023-04-06T09:01:17;6.95;;;5.47;;
6898;SDS011;3488;42.616;23.350;2023-04-06T09:03:48;5.90;;;3.78;;
6898;SDS011;3488;42.616;23.350;2023-04-06T09:06:16;4.60;;;4.15;;
6898;SDS011;3488;42.616;23.350;2023-04-06T09:08:48;4.88;;;4.32;;
6898;SDS011;3488;42.616;23.350;2023-04-06T09:11:16;5.10;;;4.32;;
6898;SDS011;3488;42.616;23.350;2023-04-06T09:13:46;5.15;;;4.65;;
6898;SDS011;3488;42.616;23.350;2023-04-06T09:16:14;5.10;;;4.55;;
6898;SDS011;3488;42.616;23.350;2023-04-06T09:18:42;5.18;;;4.63;;
6898;SDS011;3488;42.616;23.350;2023-04-06T09:21:09;5.72;;;5.22;;
6898;SDS011;3488;42.616;23.350;2023-04-06T09:23:37;4.72;;;4.22;;
6898;SDS011;3488;42.616;23.350;2023-04-06T09:26:07;4.93;;;4.50;;
6898;SDS011;3488;42.616;23.350;2023-04-06T09:28:42;5.13;;;4.63;;
6898;SDS011;3488;42.616;23.350;2023-04-06T09:31:11;4.88;;;4.32;;
6898;SDS011;3488;42.616;23.350;2023-04-06T09:33:40;5.65;;;4.10;;
6898;SDS011;3488;42.616;23.350;2023-04-06T09:36:08;3.05;;;2.83;;
6898;SDS011;3488;42.616;23.350;2023-04-06T09:38:39;4.35;;;3.92;;
6898;SDS011;3488;42.616;23.350;2023-04-06T09:41:24;8.63;;;5.15;;
6898;SDS011;3488;42.616;23.350;2023-04-06T09:44:01;4.65;;;3.70;;
6898;SDS011;3488;42.616;23.350;2023-04-06T09:46:31;8.25;;;4.35;;
6898;SDS011;3488;42.616;23.350;2023-04-06T09:49:00;4.57;;;4.20;;
6898;SDS011;3488;42.616;23.350;2023-04-06T09:51:28;5.65;;;5.13;;
6898;SDS011;3488;42.616;23.350;2023-04-06T09:53:57;6.45;;;5.45;;
6898;SDS011;3488;42.616;23.350;2023-04-06T09:56:30;5.68;;;5.10;;
6898;SDS011;3488;42.616;23.350;2023-04-06T09:59:01;5.47;;;4.97;;
6898;SDS011;3488;42.616;23.350;2023-04-06T10:01:32;5.30;;;4.80;;
6898;SDS011;3488;42.616;23.350;2023-04-06T10:04:04;5.35;;;4.85;;
6898;SDS011;3488;42.616;23.350;2023-04-06T10:06:41;5.15;;;4.65;;
6898;SDS011;3488;42.616;23.350;2023-04-06T10:09:11;6.53;;;5.55;;
6898;SDS011;3488;42.616;23.350;2023-04-06T10:11:40;5.70;;;5.20;;
6898;SDS011;3488;42.616;23.350;2023-04-06T10:14:08;6.60;;;4.75;;
6898;SDS011;3488;42.616;23.350;2023-04-06T10:16:38;8.18;;;5.72;;
6898;SDS011;3488;42.616;23.350;2023-04-06T10:19:10;5.75;;;5.15;;
6898;SDS011;3488;42.616;23.350;2023-04-06T10:21:43;6.22;;;5.63;;
6898;SDS011;3488;42.616;23.350;2023-04-06T10:24:16;5.38;;;4.97;;
6898;SDS011;3488;42.616;23.350;2023-04-06T10:26:45;6.22;;;5.63;;
6898;SDS011;3488;42.616;23.350;2023-04-06T10:29:24;7.22;;;6.22;;
6898;SDS011;3488;42.616;23.350;2023-04-06T10:31:51;7.75;;;6.13;;
6898;SDS011;3488;42.616;23.350;2023-04-06T10:34:20;5.38;;;4.72;;
6898;SDS011;3488;42.616;23.350;2023-04-06T10:36:47;6.57;;;5.00;;
6898;SDS011;3488;42.616;23.350;2023-04-06T10:39:15;5.95;;;5.35;;
6898;SDS011;3488;42.616;23.350;2023-04-06T10:41:54;5.97;;;5.38;;
6898;SDS011;3488;42.616;23.350;2023-04-06T10:44:21;11.68;;;6.65;;
6898;SDS011;3488;42.616;23.350;2023-04-06T10:46:52;6.97;;;6.28;;
6898;SDS011;3488;42.616;23.350;2023-04-06T10:49:21;7.38;;;6.45;;
6898;SDS011;3488;42.616;23.350;2023-04-06T10:51:51;6.10;;;5.60;;
6898;SDS011;3488;42.616;23.350;2023-04-06T10:54:20;7.68;;;6.95;;
6898;SDS011;3488;42.616;23.350;2023-04-06T10:56:49;5.40;;;4.85;;
6898;SDS011;3488;42.616;23.350;2023-04-06T10:59:19;6.88;;;6.18;;
6898;SDS011;3488;42.616;23.350;2023-04-06T11:01:47;8.88;;;6.00;;
6898;SDS011;3488;42.616;23.350;2023-04-06T11:04:15;8.00;;;7.20;;
6898;SDS011;3488;42.616;23.350;2023-04-06T11:06:46;10.32;;;6.72;;
6898;SDS011;3488;42.616;23.350;2023-04-06T11:09:23;8.60;;;7.30;;
6898;SDS011;3488;42.616;23.350;2023-04-06T11:11:52;7.75;;;6.95;;
6898;SDS011;3488;42.616;23.350;2023-04-06T11:14:21;8.55;;;6.78;;
6898;SDS011;3488;42.616;23.350;2023-04-06T11:16:49;7.00;;;6.00;;
6898;SDS011;3488;42.616;23.350;2023-04-06T11:19:16;6.65;;;5.63;;
6898;SDS011;3488;42.616;23.350;2023-04-06T11:21:45;8.80;;;6.43;;
6898;SDS011;3488;42.616;23.350;2023-04-06T11:24:14;7.88;;;6.90;;
6898;SDS011;3488;42.616;23.350;2023-04-06T11:26:43;6.93;;;6.22;;
6898;SDS011;3488;42.616;23.350;2023-04-06T11:29:12;7.10;;;6.40;;
6898;SDS011;3488;42.616;23.350;2023-04-06T11:31:42;9.63;;;6.97;;
6898;SDS011;3488;42.616;23.350;2023-04-06T11:36:42;6.45;;;5.85;;
6898;SDS011;3488;42.616;23.350;2023-04-06T11:39:10;7.78;;;6.55;;
6898;SDS011;3488;42.616;23.350;2023-04-06T11:41:39;6.95;;;6.25;;
6898;SDS011;3488;42.616;23.350;2023-04-06T11:44:07;6.18;;;5.50;;
6898;SDS011;3488;42.616;23.350;2023-04-06T11:46:34;5.95;;;5.45;;
6898;SDS011;3488;42.616;23.350;2023-04-06T11:49:02;6.15;;;5.07;;
6898;SDS011;3488;42.616;23.350;2023-04-06T11:51:29;6.47;;;5.38;;
6898;SDS011;3488;42.616;23.350;2023-04-06T11:53:56;7.32;;;6.57;;
6898;SDS011;3488;42.616;23.350;2023-04-06T11:56:25;6.53;;;5.93;;
6898;SDS011;3488;42.616;23.350;2023-04-06T11:58:54;7.65;;;6.95;;
6898;SDS011;3488;42.616;23.350;2023-04-06T12:01:22;7.63;;;6.88;;
6898;SDS011;3488;42.616;23.350;2023-04-06T12:03:49;6.13;;;5.38;;
6898;SDS011;3488;42.616;23.350;2023-04-06T12:06:18;6.05;;;5.30;;
6898;SDS011;3488;42.616;23.350;2023-04-06T12:08:46;9.98;;;7.35;;
6898;SDS011;3488;42.616;23.350;2023-04-06T12:11:13;6.00;;;5.13;;
6898;SDS011;3488;42.616;23.350;2023-04-06T12:13:40;6.78;;;6.00;;
6898;SDS011;3488;42.616;23.350;2023-04-06T12:16:07;6.05;;;4.82;;
6898;SDS011;3488;42.616;23.350;2023-04-06T12:18:34;8.85;;;7.13;;
6898;SDS011;3488;42.616;23.350;2023-04-06T12:21:01;7.35;;;6.00;;
6898;SDS011;3488;42.616;23.350;2023-04-06T12:23:30;8.45;;;6.60;;
6898;SDS011;3488;42.616;23.350;2023-04-06T12:25:57;6.32;;;5.45;;
6898;SDS011;3488;42.616;23.350;2023-04-06T12:28:24;6.53;;;5.85;;
6898;SDS011;3488;42.616;23.350;2023-04-06T12:30:52;6.03;;;5.43;;
6898;SDS011;3488;42.616;23.350;2023-04-06T12:33:21;5.60;;;5.05;;
6898;SDS011;3488;42.616;23.350;2023-04-06T12:35:48;8.95;;;6.80;;
6898;SDS011;3488;42.616;23.350;2023-04-06T12:38:15;7.05;;;6.30;;
6898;SDS011;3488;42.616;23.350;2023-04-06T12:40:44;6.45;;;5.78;;
6898;SDS011;3488;42.616;23.350;2023-04-06T12:43:11;8.63;;;6.68;;
6898;SDS011;3488;42.616;23.350;2023-04-06T12:45:39;7.68;;;5.30;;
6898;SDS011;3488;42.616;23.350;2023-04-06T12:48:06;6.35;;;5.75;;
6898;SDS011;3488;42.616;23.350;2023-04-06T12:50:34;6.45;;;5.85;;
6898;SDS011;3488;42.616;23.350;2023-04-06T12:53:01;7.75;;;5.97;;
6898;SDS011;3488;42.616;23.350;2023-04-06T12:55:29;6.13;;;5.28;;
6898;SDS011;3488;42.616;23.350;2023-04-06T12:58:00;10.70;;;6.45;;
6898;SDS011;3488;42.616;23.350;2023-04-06T13:00:27;8.20;;;6.93;;
6898;SDS011;3488;42.616;23.350;2023-04-06T13:02:55;7.07;;;6.38;;
6898;SDS011;3488;42.616;23.350;2023-04-06T13:05:22;5.45;;;4.90;;
6898;SDS011;3488;42.616;23.350;2023-04-06T13:07:49;6.95;;;4.90;;
6898;SDS011;3488;42.616;23.350;2023-04-06T13:10:17;5.68;;;5.20;;
6898;SDS011;3488;42.616;23.350;2023-04-06T13:12:44;6.45;;;5.85;;
6898;SDS011;3488;42.616;23.350;2023-04-06T13:15:12;5.05;;;4.22;;
6898;SDS011;3488;42.616;23.350;2023-04-06T13:17:39;5.60;;;4.25;;
6898;SDS011;3488;42.616;23.350;2023-04-06T13:20:07;9.82;;;5.60;;
6898;SDS011;3488;42.616;23.350;2023-04-06T13:22:35;9.98;;;6.05;;
6898;SDS011;3488;42.616;23.350;2023-04-06T13:25:02;6.25;;;5.13;;
6898;SDS011;3488;42.616;23.350;2023-04-06T13:27:30;6.65;;;6.15;;
6898;SDS011;3488;42.616;23.350;2023-04-06T13:30:00;7.45;;;5.63;;
6898;SDS011;3488;42.616;23.350;2023-04-06T13:32:29;4.70;;;4.35;;
6898;SDS011;3488;42.616;23.350;2023-04-06T13:34:57;7.32;;;5.97;;
6898;SDS011;3488;42.616;23.350;2023-04-06T13:37:25;6.90;;;6.20;;
6898;SDS011;3488;42.616;23.350;2023-04-06T13:39:53;7.75;;;5.85;;
6898;SDS011;3488;42.616;23.350;2023-04-06T13:42:24;6.68;;;5.65;;
6898;SDS011;3488;42.616;23.350;2023-04-06T13:44:53;6.78;;;6.10;;
6898;SDS011;3488;42.616;23.350;2023-04-06T13:47:21;7.82;;;6.47;;
6898;SDS011;3488;42.616;23.350;2023-04-06T13:49:51;7.47;;;6.80;;
6898;SDS011;3488;42.616;23.350;2023-04-06T13:52:18;6.50;;;5.20;;
6898;SDS011;3488;42.616;23.350;2023-04-06T13:54:46;8.20;;;6.88;;
6898;SDS011;3488;42.616;23.350;2023-04-06T13:57:13;7.85;;;6.78;;
6898;SDS011;3488;42.616;23.350;2023-04-06T13:59:40;4.80;;;4.40;;
6898;SDS011;3488;42.616;23.350;2023-04-06T14:02:08;8.23;;;6.53;;
6898;SDS011;3488;42.616;23.350;2023-04-06T14:04:36;5.03;;;4.57;;
6898;SDS011;3488;42.616;23.350;2023-04-06T14:07:05;7.65;;;6.20;;
6898;SDS011;3488;42.616;23.350;2023-04-06T14:09:35;7.45;;;6.70;;
6898;SDS011;3488;42.616;23.350;2023-04-06T14:12:02;5.65;;;5.10;;
6898;SDS011;3488;42.616;23.350;2023-04-06T14:14:30;7.78;;;6.97;;
6898;SDS011;3488;42.616;23.350;2023-04-06T14:16:57;8.98;;;6.55;;
6898;SDS011;3488;42.616;23.350;2023-04-06T14:19:24;6.10;;;4.93;;
6898;SDS011;3488;42.616;23.350;2023-04-06T14:21:51;6.50;;;5.78;;
6898;SDS011;3488;42.616;23.350;2023-04-06T14:24:20;8.70;;;7.13;;
6898;SDS011;3488;42.616;23.350;2023-04-06T14:26:47;8.95;;;6.35;;
6898;SDS011;3488;42.616;23.350;2023-04-06T14:29:14;9.38;;;6.05;;
6898;SDS011;3488;42.616;23.350;2023-04-06T14:31:42;8.15;;;6.10;;
6898;SDS011;3488;42.616;23.350;2023-04-06T14:34:11;9.02;;;5.93;;
6898;SDS011;3488;42.616;23.350;2023-04-06T14:36:38;11.13;;;7.18;;
6898;SDS011;3488;42.616;23.350;2023-04-06T14:39:05;6.05;;;5.40;;
6898;SDS011;3488;42.616;23.350;2023-04-06T14:41:34;9.52;;;6.70;;
6898;SDS011;3488;42.616;23.350;2023-04-06T14:44:01;6.03;;;5.43;;
6898;SDS011;3488;42.616;23.350;2023-04-06T14:46:28;6.57;;;5.82;;
6898;SDS011;3488;42.616;23.350;2023-04-06T14:48:55;7.38;;;6.65;;
6898;SDS011;3488;42.616;23.350;2023-04-06T14:51:23;9.02;;;6.50;;
6898;SDS011;3488;42.616;23.350;2023-04-06T14:53:52;6.47;;;5.88;;
6898;SDS011;3488;42.616;23.350;2023-04-06T14:56:20;7.00;;;6.28;;
6898;SDS011;3488;42.616;23.350;2023-04-06T14:58:49;7.57;;;6.78;;
6898;SDS011;3488;42.616;23.350;2023-04-06T15:01:17;10.02;;;7.80;;
6898;SDS011;3488;42.616;23.350;2023-04-06T15:03:45;5.78;;;5.22;;
6898;SDS011;3488;42.616;23.350;2023-04-06T15:06:12;6.82;;;6.20;;
6898;SDS011;3488;42.616;23.350;2023-04-06T15:08:41;7.15;;;6.53;;